No particular awareness of the weather is required.    There are no Weather-warnings


Meteo18 Weather Cam more information Meteo18 Weather Cam


Thunder radar more information blitzortung!


Rain radar more information rain snow radar


Visit our other weather sites:

Template documentation
and downloads

And another site



Weather Underground History page Text

Daily Summary for June 3, 2017 Units:  Both    English   Metric
« Previous Day
Next Day »
Daily Weekly Monthly Yearly Custom
  High: Low: Average:
Temperature: TemperatureC °F /  -17.8 °C 14.3 °F /  -9.8 °C 17.3 °F /  -8.2 °C
Dew Point: DewpointC °F /  -17.8 °C 13.3 °F /  -10.4 °C 15.6 °F /  -9.1 °C
Humidity: Humidity % 75 % 89 %
Wind Speed: WindSpeedKMH mph /  0 km/h - 3 mph /  4.8 km/h
Wind Gust: WindSpeedGustKMH mph /  0 km/h - -
Wind:- - WSW
Pressure: PressurehPa in /  0 hPa 1015.1 in /  34371.3 hPa -
Precipitation: 9.4 in /  238.76 mm    
Historical Graphs
 
 
Tabular Data for June 3, 2017
Time Temperature Dew Point Pressure Wind Wind Speed Wind Gust Humidity Rainfall Rate (Hourly)
TemperatureC °F /  -17.8 °C DewpointC °F /  -17.8 °C PressurehPa in /  0 hPa Calm     Humidity % HourlyPrecipMM in /  0 mm
00:02 18.8 °F /  -7.3 °C 16.0 °F /  -8.9 °C 1016.5 in /  34418.7 hPa Calm   3.2 mph /  5.1 km/h 84 % 0.0 in /  0 mm
00:07 18.8 °F /  -7.3 °C 16.2 °F /  -8.8 °C 1016.5 in /  34418.7 hPa Calm   3.2 mph /  5.1 km/h 85 % 0.0 in /  0 mm
00:12 18.7 °F /  -7.4 °C 16.1 °F /  -8.8 °C 1016.5 in /  34418.7 hPa Calm   3.2 mph /  5.1 km/h 85 % 0.0 in /  0 mm
00:17 18.5 °F /  -7.5 °C 16.1 °F /  -8.8 °C 1016.5 in /  34418.7 hPa Calm   1.6 mph /  2.6 km/h 86 % 0.0 in /  0 mm
00:22 18.4 °F /  -7.6 °C 16.0 °F /  -8.9 °C 1016.5 in /  34418.7 hPa Calm   1.6 mph /  2.6 km/h 86 % 0.0 in /  0 mm
00:32 18.5 °F /  -7.5 °C 16.1 °F /  -8.8 °C 1016.5 in /  34418.7 hPa Calm   1.6 mph /  2.6 km/h 86 % 0.0 in /  0 mm
00:37 18.4 °F /  -7.6 °C 16.0 °F /  -8.9 °C 1016.5 in /  34418.7 hPa Calm     86 % 0.0 in /  0 mm
00:42 18.2 °F /  -7.7 °C 15.8 °F /  -9 °C 1016.5 in /  34418.7 hPa Calm     86 % 0.0 in /  0 mm
00:47 18.1 °F /  -7.7 °C 15.9 °F /  -8.9 °C 1016.5 in /  34418.7 hPa Calm     87 % 0.0 in /  0 mm
00:52 18.1 °F /  -7.7 °C 16.1 °F /  -8.8 °C 1016.8 in /  34428.8 hPa WNW 1.6 mph /  2.6 km/h   88 % 0.0 in /  0 mm
00:57 17.8 °F /  -7.9 °C 15.8 °F /  -9 °C 1016.8 in /  34428.8 hPa WNW 1.6 mph /  2.6 km/h 1.6 mph /  2.6 km/h 88 % 0.0 in /  0 mm
01:02 17.7 °F /  -7.9 °C 15.9 °F /  -8.9 °C 1016.8 in /  34428.8 hPa WNW 1.6 mph /  2.6 km/h 1.6 mph /  2.6 km/h 89 % 0.0 in /  0 mm
01:07 17.6 °F /  -8 °C 15.9 °F /  -8.9 °C 1016.8 in /  34428.8 hPa WNW 1.6 mph /  2.6 km/h 1.6 mph /  2.6 km/h 90 % 0.0 in /  0 mm
01:12 17.7 °F /  -7.9 °C 16.0 °F /  -8.9 °C 1016.8 in /  34428.8 hPa Calm   1.6 mph /  2.6 km/h 90 % 0.0 in /  0 mm
01:17 17.7 °F /  -7.9 °C 15.9 °F /  -8.9 °C 1016.5 in /  34418.7 hPa Calm   1.6 mph /  2.6 km/h 89 % 0.0 in /  0 mm
01:22 17.7 °F /  -7.9 °C 15.9 °F /  -8.9 °C 1016.5 in /  34418.7 hPa Calm   1.6 mph /  2.6 km/h 89 % 0.0 in /  0 mm
01:27 17.6 °F /  -8 °C 15.9 °F /  -8.9 °C 1016.1 in /  34405.1 hPa NNE 1.6 mph /  2.6 km/h 3.2 mph /  5.1 km/h 90 % 0.0 in /  0 mm
01:32 17.5 °F /  -8.1 °C 15.8 °F /  -9 °C 1016.1 in /  34405.1 hPa Calm   3.2 mph /  5.1 km/h 90 % 0.0 in /  0 mm
01:37 17.5 °F /  -8.1 °C 15.8 °F /  -9 °C 1016.1 in /  34405.1 hPa Calm   3.2 mph /  5.1 km/h 90 % 0.0 in /  0 mm
01:42 17.5 °F /  -8.1 °C 15.8 °F /  -9 °C 1016.1 in /  34405.1 hPa Calm   3.2 mph /  5.1 km/h 90 % 0.0 in /  0 mm
01:47 17.4 °F /  -8.1 °C 15.7 °F /  -9.1 °C 1016.1 in /  34405.1 hPa Calm   1.6 mph /  2.6 km/h 90 % 0.0 in /  0 mm
01:52 17.3 °F /  -8.2 °C 15.6 °F /  -9.1 °C 1016.1 in /  34405.1 hPa Calm   1.6 mph /  2.6 km/h 90 % 0.0 in /  0 mm
01:57 17.2 °F /  -8.2 °C 15.7 °F /  -9.1 °C 1016.1 in /  34405.1 hPa Calm   1.6 mph /  2.6 km/h 91 % 0.0 in /  0 mm
02:02 17.2 °F /  -8.2 °C 15.7 °F /  -9.1 °C 1016.1 in /  34405.1 hPa WNW 1.6 mph /  2.6 km/h 1.6 mph /  2.6 km/h 91 % 0.0 in /  0 mm
02:07 17.2 °F /  -8.2 °C 15.7 °F /  -9.1 °C 1016.1 in /  34405.1 hPa Calm   1.6 mph /  2.6 km/h 91 % 0.0 in /  0 mm
02:12 17.1 °F /  -8.3 °C 15.6 °F /  -9.1 °C 1015.8 in /  34395 hPa Calm   1.6 mph /  2.6 km/h 91 % 0.0 in /  0 mm
02:17 17.1 °F /  -8.3 °C 15.6 °F /  -9.1 °C 1015.8 in /  34395 hPa Calm   1.6 mph /  2.6 km/h 91 % 0.0 in /  0 mm
02:22 17.1 °F /  -8.3 °C 15.6 °F /  -9.1 °C 1015.8 in /  34395 hPa Calm   1.6 mph /  2.6 km/h 91 % 0.0 in /  0 mm
02:27 17.0 °F /  -8.3 °C 15.5 °F /  -9.2 °C 1015.8 in /  34395 hPa Calm     91 % 0.0 in /  0 mm
02:32 16.9 °F /  -8.4 °C 15.6 °F /  -9.1 °C 1015.8 in /  34395 hPa WNW 1.6 mph /  2.6 km/h 1.6 mph /  2.6 km/h 92 % 0.0 in /  0 mm
02:37 16.8 °F /  -8.4 °C 15.5 °F /  -9.2 °C 1015.8 in /  34395 hPa WNW 1.6 mph /  2.6 km/h 1.6 mph /  2.6 km/h 92 % 0.0 in /  0 mm
02:42 16.7 °F /  -8.5 °C 15.4 °F /  -9.2 °C 1015.8 in /  34395 hPa Calm   1.6 mph /  2.6 km/h 92 % 0.0 in /  0 mm
02:47 16.7 °F /  -8.5 °C 15.4 °F /  -9.2 °C 1015.8 in /  34395 hPa Calm   1.6 mph /  2.6 km/h 92 % 0.0 in /  0 mm
02:52 16.7 °F /  -8.5 °C 15.4 °F /  -9.2 °C 1015.8 in /  34395 hPa Calm   1.6 mph /  2.6 km/h 92 % 0.0 in /  0 mm
02:57 16.7 °F /  -8.5 °C 15.4 °F /  -9.2 °C 1015.8 in /  34395 hPa Calm   1.6 mph /  2.6 km/h 92 % 0.0 in /  0 mm
03:02 16.7 °F /  -8.5 °C 15.4 °F /  -9.2 °C 1015.8 in /  34395 hPa Calm     92 % 0.0 in /  0 mm
03:07 16.7 °F /  -8.5 °C 15.4 °F /  -9.2 °C 1015.8 in /  34395 hPa Calm     92 % 0.0 in /  0 mm
03:12 16.6 °F /  -8.6 °C 15.3 °F /  -9.3 °C 1015.8 in /  34395 hPa Calm     92 % 0.0 in /  0 mm
03:17 16.4 °F /  -8.7 °C 15.1 °F /  -9.4 °C 1015.8 in /  34395 hPa Calm     92 % 0.0 in /  0 mm
03:22 16.3 °F /  -8.7 °C 15.2 °F /  -9.3 °C 1015.8 in /  34395 hPa Calm   1.6 mph /  2.6 km/h 93 % 0.0 in /  0 mm
03:27 16.2 °F /  -8.8 °C 15.1 °F /  -9.4 °C 1015.8 in /  34395 hPa WNW 1.6 mph /  2.6 km/h 1.6 mph /  2.6 km/h 93 % 0.0 in /  0 mm
03:32 16.2 °F /  -8.8 °C 15.1 °F /  -9.4 °C 1015.8 in /  34395 hPa WNW 1.6 mph /  2.6 km/h 3.2 mph /  5.1 km/h 93 % 0.0 in /  0 mm
03:37 16.2 °F /  -8.8 °C 15.2 °F /  -9.3 °C 1015.8 in /  34395 hPa Calm   3.2 mph /  5.1 km/h 94 % 0.0 in /  0 mm
03:42 16.2 °F /  -8.8 °C 15.2 °F /  -9.3 °C 1015.5 in /  34384.8 hPa WNW 3.2 mph /  5.1 km/h 3.2 mph /  5.1 km/h 94 % 0.0 in /  0 mm
03:47 16.2 °F /  -8.8 °C 15.1 °F /  -9.4 °C 1015.8 in /  34395 hPa WNW 1.6 mph /  2.6 km/h 3.2 mph /  5.1 km/h 93 % 0.0 in /  0 mm
03:52 16.1 °F /  -8.8 °C 15.1 °F /  -9.4 °C 1015.8 in /  34395 hPa Calm   3.2 mph /  5.1 km/h 94 % 0.0 in /  0 mm
03:57 16.1 °F /  -8.8 °C 15.1 °F /  -9.4 °C 1015.8 in /  34395 hPa Calm   3.2 mph /  5.1 km/h 94 % 0.0 in /  0 mm
04:02 15.9 °F /  -8.9 °C 14.9 °F /  -9.5 °C 1015.8 in /  34395 hPa Calm   1.6 mph /  2.6 km/h 94 % 0.0 in /  0 mm
04:07 15.9 °F /  -8.9 °C 14.9 °F /  -9.5 °C 1015.8 in /  34395 hPa WNW 1.6 mph /  2.6 km/h 3.2 mph /  5.1 km/h 94 % 0.0 in /  0 mm
04:12 15.9 °F /  -8.9 °C 14.9 °F /  -9.5 °C 1015.8 in /  34395 hPa WNW 1.6 mph /  2.6 km/h 3.2 mph /  5.1 km/h 94 % 0.0 in /  0 mm
04:17 15.9 °F /  -8.9 °C 14.9 °F /  -9.5 °C 1015.5 in /  34384.8 hPa Calm   3.2 mph /  5.1 km/h 94 % 0.0 in /  0 mm
04:22 16.0 °F /  -8.9 °C 15.0 °F /  -9.4 °C 1015.5 in /  34384.8 hPa Calm   3.2 mph /  5.1 km/h 94 % 0.0 in /  0 mm
04:27 16.1 °F /  -8.8 °C 15.1 °F /  -9.4 °C 1015.5 in /  34384.8 hPa Calm   3.2 mph /  5.1 km/h 94 % 0.0 in /  0 mm
04:32 16.2 °F /  -8.8 °C 15.2 °F /  -9.3 °C 1015.5 in /  34384.8 hPa Calm   1.6 mph /  2.6 km/h 94 % 0.0 in /  0 mm
04:37 16.2 °F /  -8.8 °C 15.2 °F /  -9.3 °C 1015.5 in /  34384.8 hPa Calm   1.6 mph /  2.6 km/h 94 % 0.0 in /  0 mm
04:42 16.1 °F /  -8.8 °C 15.1 °F /  -9.4 °C 1015.5 in /  34384.8 hPa Calm   1.6 mph /  2.6 km/h 94 % 0.0 in /  0 mm
04:47 16.2 °F /  -8.8 °C 15.2 °F /  -9.3 °C 1015.5 in /  34384.8 hPa Calm     94 % 0.0 in /  0 mm
04:52 16.2 °F /  -8.8 °C 15.2 °F /  -9.3 °C 1015.5 in /  34384.8 hPa Calm     94 % 0.0 in /  0 mm
04:57 16.2 °F /  -8.8 °C 15.2 °F /  -9.3 °C 1015.5 in /  34384.8 hPa Calm     94 % 0.0 in /  0 mm
05:02 16.3 °F /  -8.7 °C 15.3 °F /  -9.3 °C 1015.5 in /  34384.8 hPa Calm     94 % 0.0 in /  0 mm
05:12 16.3 °F /  -8.7 °C 15.3 °F /  -9.3 °C 1015.5 in /  34384.8 hPa Calm     94 % 0.0 in /  0 mm
05:17 16.2 °F /  -8.8 °C 15.2 °F /  -9.3 °C 1015.5 in /  34384.8 hPa Calm     94 % 0.0 in /  0 mm
05:22 16.2 °F /  -8.8 °C 15.2 °F /  -9.3 °C 1015.5 in /  34384.8 hPa Calm     94 % 0.0 in /  0 mm
05:27 16.1 °F /  -8.8 °C 15.1 °F /  -9.4 °C 1015.5 in /  34384.8 hPa Calm     94 % 0.0 in /  0 mm
05:32 16.1 °F /  -8.8 °C 15.1 °F /  -9.4 °C 1015.5 in /  34384.8 hPa Calm     94 % 0.0 in /  0 mm
05:37 16.1 °F /  -8.8 °C 15.1 °F /  -9.4 °C 1015.5 in /  34384.8 hPa Calm     94 % 0.0 in /  0 mm
05:42 16.2 °F /  -8.8 °C 15.2 °F /  -9.3 °C 1015.5 in /  34384.8 hPa Calm     94 % 0.0 in /  0 mm
05:47 16.2 °F /  -8.8 °C 15.2 °F /  -9.3 °C 1015.5 in /  34384.8 hPa Calm     94 % 0.0 in /  0 mm
05:52 16.1 °F /  -8.8 °C 15.1 °F /  -9.4 °C 1015.5 in /  34384.8 hPa Calm     94 % 0.0 in /  0 mm
05:57 15.9 °F /  -8.9 °C 14.9 °F /  -9.5 °C 1015.5 in /  34384.8 hPa Calm     94 % 0.0 in /  0 mm
06:02 15.9 °F /  -8.9 °C 14.9 °F /  -9.5 °C 1015.5 in /  34384.8 hPa Calm     94 % 0.0 in /  0 mm
06:12 15.9 °F /  -8.9 °C 14.9 °F /  -9.5 °C 1015.5 in /  34384.8 hPa Calm     94 % 0.0 in /  0 mm
06:17 15.8 °F /  -9 °C 14.8 °F /  -9.6 °C 1015.5 in /  34384.8 hPa Calm     94 % 0.0 in /  0 mm
06:22 15.6 °F /  -9.1 °C 14.6 °F /  -9.7 °C 1015.5 in /  34384.8 hPa Calm     94 % 0.0 in /  0 mm
06:27 15.6 °F /  -9.1 °C 14.6 °F /  -9.7 °C 1015.5 in /  34384.8 hPa Calm     94 % 0.0 in /  0 mm
06:32 15.6 °F /  -9.1 °C 14.8 °F /  -9.6 °C 1015.1 in /  34371.3 hPa Calm     95 % 0.0 in /  0 mm
06:37 15.7 °F /  -9.1 °C 14.9 °F /  -9.5 °C 1015.5 in /  34384.8 hPa Calm     95 % 0.0 in /  0 mm
06:42 15.8 °F /  -9 °C 15.0 °F /  -9.4 °C 1015.5 in /  34384.8 hPa Calm     95 % 0.0 in /  0 mm
06:47 16.1 °F /  -8.8 °C 15.3 °F /  -9.3 °C 1015.1 in /  34371.3 hPa Calm     95 % 0.0 in /  0 mm
06:52 16.5 °F /  -8.6 °C 15.7 °F /  -9.1 °C 1015.5 in /  34384.8 hPa Calm     95 % 0.0 in /  0 mm
07:02 16.9 °F /  -8.4 °C 15.9 °F /  -8.9 °C 1015.5 in /  34384.8 hPa Calm     94 % 0.0 in /  0 mm
07:07 17.3 °F /  -8.2 °C 16.3 °F /  -8.7 °C 1015.5 in /  34384.8 hPa Calm     94 % 0.0 in /  0 mm
07:12 17.4 °F /  -8.1 °C 16.3 °F /  -8.7 °C 1015.5 in /  34384.8 hPa Calm     93 % 0.0 in /  0 mm
07:17 17.2 °F /  -8.2 °C 15.9 °F /  -8.9 °C 1015.5 in /  34384.8 hPa Calm     92 % 0.0 in /  0 mm
07:22 17.2 °F /  -8.2 °C 16.1 °F /  -8.8 °C 1015.8 in /  34395 hPa Calm     93 % 0.0 in /  0 mm
07:27 17.1 °F /  -8.3 °C 15.8 °F /  -9 °C 1015.8 in /  34395 hPa Calm   4.8 mph /  7.7 km/h 92 % 0.0 in /  0 mm
07:32 17.1 °F /  -8.3 °C 16.0 °F /  -8.9 °C 1015.8 in /  34395 hPa Calm   4.8 mph /  7.7 km/h 93 % 0.0 in /  0 mm
07:42 17.1 °F /  -8.3 °C 16.0 °F /  -8.9 °C 1015.8 in /  34395 hPa Calm   4.8 mph /  7.7 km/h 93 % 0.0 in /  0 mm
07:47 17.1 °F /  -8.3 °C 16.0 °F /  -8.9 °C 1015.8 in /  34395 hPa Calm   3.2 mph /  5.1 km/h 93 % 0.0 in /  0 mm
07:52 17.1 °F /  -8.3 °C 16.0 °F /  -8.9 °C 1016.1 in /  34405.1 hPa Calm   3.2 mph /  5.1 km/h 93 % 0.0 in /  0 mm
07:57 17.1 °F /  -8.3 °C 16.0 °F /  -8.9 °C 1016.1 in /  34405.1 hPa Calm   3.2 mph /  5.1 km/h 93 % 0.0 in /  0 mm
08:02 17.1 °F /  -8.3 °C 16.0 °F /  -8.9 °C 1016.1 in /  34405.1 hPa Calm   1.6 mph /  2.6 km/h 93 % 0.0 in /  0 mm
08:07 17.2 °F /  -8.2 °C 16.1 °F /  -8.8 °C 1016.1 in /  34405.1 hPa Calm   1.6 mph /  2.6 km/h 93 % 0.0 in /  0 mm
08:12 17.2 °F /  -8.2 °C 16.1 °F /  -8.8 °C 1015.8 in /  34395 hPa Calm   1.6 mph /  2.6 km/h 93 % 0.0 in /  0 mm
08:17 17.2 °F /  -8.2 °C 16.1 °F /  -8.8 °C 1016.1 in /  34405.1 hPa WNW 1.6 mph /  2.6 km/h 3.2 mph /  5.1 km/h 93 % 0.0 in /  0 mm
08:22 17.3 °F /  -8.2 °C 16.3 °F /  -8.7 °C 1016.1 in /  34405.1 hPa SSW 3.2 mph /  5.1 km/h 3.2 mph /  5.1 km/h 94 % 0.0 in /  0 mm
08:27 17.4 °F /  -8.1 °C 16.4 °F /  -8.7 °C 1016.1 in /  34405.1 hPa SSW 4.8 mph /  7.7 km/h 8.0 mph /  12.9 km/h 94 % 0.0 in /  0 mm
08:32 17.4 °F /  -8.1 °C 16.3 °F /  -8.7 °C 1016.1 in /  34405.1 hPa SW 4.8 mph /  7.7 km/h 11.3 mph /  18.2 km/h 93 % 0.0 in /  0 mm
08:37 17.4 °F /  -8.1 °C 16.4 °F /  -8.7 °C 1016.1 in /  34405.1 hPa SW 1.6 mph /  2.6 km/h 11.3 mph /  18.2 km/h 94 % 0.0 in /  0 mm
08:42 17.4 °F /  -8.1 °C 16.4 °F /  -8.7 °C 1016.1 in /  34405.1 hPa Calm   9.7 mph /  15.6 km/h 94 % 0.0 in /  0 mm
08:47 17.4 °F /  -8.1 °C 16.4 °F /  -8.7 °C 1016.1 in /  34405.1 hPa Calm   9.7 mph /  15.6 km/h 94 % 0.0 in /  0 mm
08:52 17.6 °F /  -8 °C 16.6 °F /  -8.6 °C 1016.1 in /  34405.1 hPa Calm   4.8 mph /  7.7 km/h 94 % 0.0 in /  0 mm
08:57 17.7 °F /  -7.9 °C 16.7 °F /  -8.5 °C 1016.1 in /  34405.1 hPa Calm   3.2 mph /  5.1 km/h 94 % 0.0 in /  0 mm
09:02 17.9 °F /  -7.8 °C 16.9 °F /  -8.4 °C 1016.1 in /  34405.1 hPa Calm   3.2 mph /  5.1 km/h 94 % 0.0 in /  0 mm
09:07 18.1 °F /  -7.7 °C 17.1 °F /  -8.3 °C 1016.1 in /  34405.1 hPa NNW 1.6 mph /  2.6 km/h 4.8 mph /  7.7 km/h 94 % 0.0 in /  0 mm
09:12 18.2 °F /  -7.7 °C 17.0 °F /  -8.3 °C 1016.1 in /  34405.1 hPa WNW 3.2 mph /  5.1 km/h 8.0 mph /  12.9 km/h 93 % 0.0 in /  0 mm
09:17 18.3 °F /  -7.6 °C 17.1 °F /  -8.3 °C 1016.1 in /  34405.1 hPa West 3.2 mph /  5.1 km/h 8.0 mph /  12.9 km/h 93 % 0.0 in /  0 mm
09:22 18.4 °F /  -7.6 °C 17.2 °F /  -8.2 °C 1016.1 in /  34405.1 hPa WSW 3.2 mph /  5.1 km/h 8.0 mph /  12.9 km/h 93 % 0.0 in /  0 mm
09:27 18.4 °F /  -7.6 °C 17.2 °F /  -8.2 °C 1016.5 in /  34418.7 hPa West 1.6 mph /  2.6 km/h 8.0 mph /  12.9 km/h 93 % 0.0 in /  0 mm
09:32 18.6 °F /  -7.4 °C 17.4 °F /  -8.1 °C 1016.5 in /  34418.7 hPa SW 1.6 mph /  2.6 km/h 4.8 mph /  7.7 km/h 93 % 0.0 in /  0 mm
09:37 18.6 °F /  -7.4 °C 17.3 °F /  -8.2 °C 1016.5 in /  34418.7 hPa SSW 3.2 mph /  5.1 km/h 4.8 mph /  7.7 km/h 92 % 0.0 in /  0 mm
09:42 18.6 °F /  -7.4 °C 17.3 °F /  -8.2 °C 1016.5 in /  34418.7 hPa SSW 6.4 mph /  10.3 km/h 8.0 mph /  12.9 km/h 92 % 0.0 in /  0 mm
09:47 18.6 °F /  -7.4 °C 17.3 °F /  -8.2 °C 1016.5 in /  34418.7 hPa SSW 4.8 mph /  7.7 km/h 8.0 mph /  12.9 km/h 92 % 0.0 in /  0 mm
09:52 18.6 °F /  -7.4 °C 17.3 °F /  -8.2 °C 1016.5 in /  34418.7 hPa SSW 3.2 mph /  5.1 km/h 8.0 mph /  12.9 km/h 92 % 0.0 in /  0 mm
09:57 18.6 °F /  -7.4 °C 17.3 °F /  -8.2 °C 1016.5 in /  34418.7 hPa SSW 3.2 mph /  5.1 km/h 8.0 mph /  12.9 km/h 92 % 0.0 in /  0 mm
10:02 18.4 °F /  -7.6 °C 16.9 °F /  -8.4 °C 1016.8 in /  34428.8 hPa SW 9.7 mph /  15.6 km/h 9.7 mph /  15.6 km/h 91 % 0.0 in /  0 mm
10:07 18.2 °F /  -7.7 °C 16.9 °F /  -8.4 °C 1016.8 in /  34428.8 hPa SW 12.9 mph /  20.8 km/h 12.9 mph /  20.8 km/h 92 % 0.0 in /  0 mm
10:12 17.9 °F /  -7.8 °C 16.4 °F /  -8.7 °C 1016.8 in /  34428.8 hPa SW 8.0 mph /  12.9 km/h 12.9 mph /  20.8 km/h 91 % 0.0 in /  0 mm
10:17 17.8 °F /  -7.9 °C 16.5 °F /  -8.6 °C 1016.8 in /  34428.8 hPa SSW 3.2 mph /  5.1 km/h 14.5 mph /  23.3 km/h 92 % 0.0 in /  0 mm
10:22 17.6 °F /  -8 °C 16.1 °F /  -8.8 °C 1016.8 in /  34428.8 hPa SW 14.5 mph /  23.3 km/h 14.5 mph /  23.3 km/h 91 % 0.0 in /  0 mm
10:27 17.5 °F /  -8.1 °C 16.0 °F /  -8.9 °C 1016.8 in /  34428.8 hPa SW 12.9 mph /  20.8 km/h 17.7 mph /  28.5 km/h 91 % 0.0 in /  0 mm
10:32 17.4 °F /  -8.1 °C 15.7 °F /  -9.1 °C 1017.2 in /  34442.4 hPa SSE 12.9 mph /  20.8 km/h 17.7 mph /  28.5 km/h 90 % 0.0 in /  0 mm
10:37 17.4 °F /  -8.1 °C 15.7 °F /  -9.1 °C 1016.8 in /  34428.8 hPa SSW 8.0 mph /  12.9 km/h 19.3 mph /  31.1 km/h 90 % 0.0 in /  0 mm
10:42 17.5 °F /  -8.1 °C 15.8 °F /  -9 °C 1017.2 in /  34442.4 hPa SSE 6.4 mph /  10.3 km/h 19.3 mph /  31.1 km/h 90 % 0.0 in /  0 mm
10:47 17.6 °F /  -8 °C 15.9 °F /  -8.9 °C 1016.8 in /  34428.8 hPa SW 4.8 mph /  7.7 km/h 19.3 mph /  31.1 km/h 90 % 0.0 in /  0 mm
10:52 17.7 °F /  -7.9 °C 15.9 °F /  -8.9 °C 1016.8 in /  34428.8 hPa SSW 4.8 mph /  7.7 km/h 14.5 mph /  23.3 km/h 89 % 0.0 in /  0 mm
10:57 17.7 °F /  -7.9 °C 15.9 °F /  -8.9 °C 1016.8 in /  34428.8 hPa WSW 6.4 mph /  10.3 km/h 12.9 mph /  20.8 km/h 89 % 0.0 in /  0 mm
11:02 17.8 °F /  -7.9 °C 16.0 °F /  -8.9 °C 1016.8 in /  34428.8 hPa WSW 4.8 mph /  7.7 km/h 11.3 mph /  18.2 km/h 89 % 0.0 in /  0 mm
11:07 17.9 °F /  -7.8 °C 16.2 °F /  -8.8 °C 1016.8 in /  34428.8 hPa SW 3.2 mph /  5.1 km/h 11.3 mph /  18.2 km/h 90 % 0.0 in /  0 mm
11:12 18.0 °F /  -7.8 °C 16.3 °F /  -8.7 °C 1016.8 in /  34428.8 hPa SSW 1.6 mph /  2.6 km/h 9.7 mph /  15.6 km/h 90 % 0.0 in /  0 mm
11:17 18.1 °F /  -7.7 °C 16.4 °F /  -8.7 °C 1016.8 in /  34428.8 hPa WSW 4.8 mph /  7.7 km/h 9.7 mph /  15.6 km/h 90 % 0.0 in /  0 mm
11:22 18.3 °F /  -7.6 °C 16.5 °F /  -8.6 °C 1016.8 in /  34428.8 hPa SSW 3.2 mph /  5.1 km/h 8.0 mph /  12.9 km/h 89 % 0.0 in /  0 mm
11:27 18.4 °F /  -7.6 °C 16.2 °F /  -8.8 °C 1016.8 in /  34428.8 hPa SSW 4.8 mph /  7.7 km/h 8.0 mph /  12.9 km/h 87 % 0.0 in /  0 mm
11:32 18.6 °F /  -7.4 °C 16.2 °F /  -8.8 °C 1016.8 in /  34428.8 hPa WSW 6.4 mph /  10.3 km/h 9.7 mph /  15.6 km/h 86 % 0.0 in /  0 mm
11:37 18.6 °F /  -7.4 °C 16.2 °F /  -8.8 °C 1016.8 in /  34428.8 hPa SW 4.8 mph /  7.7 km/h 9.7 mph /  15.6 km/h 86 % 0.0 in /  0 mm
11:42 18.6 °F /  -7.4 °C 16.0 °F /  -8.9 °C 1016.8 in /  34428.8 hPa SSW 4.8 mph /  7.7 km/h 9.7 mph /  15.6 km/h 85 % 0.0 in /  0 mm
11:47 18.7 °F /  -7.4 °C 16.1 °F /  -8.8 °C 1016.8 in /  34428.8 hPa SW 6.4 mph /  10.3 km/h 11.3 mph /  18.2 km/h 85 % 0.0 in /  0 mm
11:52 18.8 °F /  -7.3 °C 16.2 °F /  -8.8 °C 1016.8 in /  34428.8 hPa SSW 3.2 mph /  5.1 km/h 12.9 mph /  20.8 km/h 85 % 0.0 in /  0 mm
12:02 18.9 °F /  -7.3 °C 15.8 °F /  -9 °C 1016.8 in /  34428.8 hPa West 6.4 mph /  10.3 km/h 11.3 mph /  18.2 km/h 82 % 0.0 in /  0 mm
12:07 18.9 °F /  -7.3 °C 15.9 °F /  -8.9 °C 1016.8 in /  34428.8 hPa SW 6.4 mph /  10.3 km/h 11.3 mph /  18.2 km/h 83 % 0.0 in /  0 mm
12:12 18.9 °F /  -7.3 °C 15.9 °F /  -8.9 °C 1016.8 in /  34428.8 hPa SW 3.2 mph /  5.1 km/h 11.3 mph /  18.2 km/h 83 % 0.0 in /  0 mm
12:17 19.1 °F /  -7.2 °C 15.6 °F /  -9.1 °C 1016.8 in /  34428.8 hPa SW 9.7 mph /  15.6 km/h 12.9 mph /  20.8 km/h 80 % 0.0 in /  0 mm
12:22 19.0 °F /  -7.2 °C 15.5 °F /  -9.2 °C 1016.8 in /  34428.8 hPa SSW 3.2 mph /  5.1 km/h 12.9 mph /  20.8 km/h 80 % 0.0 in /  0 mm
12:32 19.1 °F /  -7.2 °C 15.6 °F /  -9.1 °C 1016.8 in /  34428.8 hPa SW 8.0 mph /  12.9 km/h 11.3 mph /  18.2 km/h 80 % 0.0 in /  0 mm
12:42 18.9 °F /  -7.3 °C 15.6 °F /  -9.1 °C 1016.5 in /  34418.7 hPa SW 3.2 mph /  5.1 km/h 11.3 mph /  18.2 km/h 81 % 0.0 in /  0 mm
12:47 18.9 °F /  -7.3 °C 15.8 °F /  -9 °C 1016.5 in /  34418.7 hPa SW 3.2 mph /  5.1 km/h 11.3 mph /  18.2 km/h 82 % 0.0 in /  0 mm
12:52 18.9 °F /  -7.3 °C 15.9 °F /  -8.9 °C 1016.5 in /  34418.7 hPa SSW 6.4 mph /  10.3 km/h 11.3 mph /  18.2 km/h 83 % 0.0 in /  0 mm
12:57 18.8 °F /  -7.3 °C 15.9 °F /  -8.9 °C 1016.5 in /  34418.7 hPa SSW 4.8 mph /  7.7 km/h 9.7 mph /  15.6 km/h 83 % 0.0 in /  0 mm
13:02 18.8 °F /  -7.3 °C 15.9 °F /  -8.9 °C 1016.1 in /  34405.1 hPa WSW 6.4 mph /  10.3 km/h 9.7 mph /  15.6 km/h 83 % 0.3 in /  7.62 mm
13:12 19.1 °F /  -7.2 °C 16.3 °F /  -8.7 °C 1016.1 in /  34405.1 hPa SSW 6.4 mph /  10.3 km/h 11.3 mph /  18.2 km/h 84 % 0.3 in /  7.62 mm
13:17 19.2 °F /  -7.1 °C 16.2 °F /  -8.8 °C 1016.1 in /  34405.1 hPa SSW 1.6 mph /  2.6 km/h 9.7 mph /  15.6 km/h 83 % 0.3 in /  7.62 mm
13:22 19.4 °F /  -7 °C 16.6 °F /  -8.6 °C 1016.1 in /  34405.1 hPa SW 3.2 mph /  5.1 km/h 11.3 mph /  18.2 km/h 84 % 0.3 in /  7.62 mm
13:27 19.6 °F /  -6.9 °C 16.6 °F /  -8.6 °C 1016.1 in /  34405.1 hPa SSW 8.0 mph /  12.9 km/h 11.3 mph /  18.2 km/h 83 % 0.3 in /  7.62 mm
13:32 19.7 °F /  -6.8 °C 16.5 °F /  -8.6 °C 1015.8 in /  34395 hPa WSW 8.0 mph /  12.9 km/h 12.9 mph /  20.8 km/h 82 % 0.3 in /  7.62 mm
13:37 19.8 °F /  -6.8 °C 16.4 °F /  -8.7 °C 1015.8 in /  34395 hPa SSW 8.0 mph /  12.9 km/h 12.9 mph /  20.8 km/h 81 % 0.3 in /  7.62 mm
13:42 19.8 °F /  -6.8 °C 16.4 °F /  -8.7 °C 1015.8 in /  34395 hPa SW 8.0 mph /  12.9 km/h 12.9 mph /  20.8 km/h 81 % 0.3 in /  7.62 mm
13:52 19.9 °F /  -6.7 °C 16.5 °F /  -8.6 °C 1015.8 in /  34395 hPa WSW 6.4 mph /  10.3 km/h 14.5 mph /  23.3 km/h 81 % 0.3 in /  7.62 mm
13:57 19.9 °F /  -6.7 °C 16.3 °F /  -8.7 °C 1015.8 in /  34395 hPa WSW 3.2 mph /  5.1 km/h 14.5 mph /  23.3 km/h 80 % 0.3 in /  7.62 mm
14:02 20.1 °F /  -6.6 °C 16.5 °F /  -8.6 °C 1015.8 in /  34395 hPa SW 8.0 mph /  12.9 km/h 14.5 mph /  23.3 km/h 80 % 0.0 in /  0 mm
14:07 20.0 °F /  -6.7 °C 16.4 °F /  -8.7 °C 1015.8 in /  34395 hPa WSW 9.7 mph /  15.6 km/h 14.5 mph /  23.3 km/h 80 % 0.0 in /  0 mm
14:12 19.9 °F /  -6.7 °C 16.1 °F /  -8.8 °C 1015.8 in /  34395 hPa West 8.0 mph /  12.9 km/h 14.5 mph /  23.3 km/h 79 % 0.0 in /  0 mm
14:22 20.1 °F /  -6.6 °C 16.5 °F /  -8.6 °C 1015.5 in /  34384.8 hPa WSW 6.4 mph /  10.3 km/h 14.5 mph /  23.3 km/h 80 % 0.0 in /  0 mm
14:27 20.2 °F /  -6.6 °C 16.4 °F /  -8.7 °C 1015.5 in /  34384.8 hPa SW 8.0 mph /  12.9 km/h 14.5 mph /  23.3 km/h 79 % 0.0 in /  0 mm
14:32 20.2 °F /  -6.6 °C 16.4 °F /  -8.7 °C 1015.5 in /  34384.8 hPa West 8.0 mph /  12.9 km/h 14.5 mph /  23.3 km/h 79 % 0.0 in /  0 mm
14:37 20.2 °F /  -6.6 °C 16.6 °F /  -8.6 °C 1015.5 in /  34384.8 hPa WNW 8.0 mph /  12.9 km/h 14.5 mph /  23.3 km/h 80 % 0.0 in /  0 mm
14:42 20.2 °F /  -6.6 °C 16.4 °F /  -8.7 °C 1015.5 in /  34384.8 hPa WSW 4.8 mph /  7.7 km/h 17.7 mph /  28.5 km/h 79 % 0.0 in /  0 mm
14:47 20.2 °F /  -6.6 °C 15.6 °F /  -9.1 °C 1015.5 in /  34384.8 hPa WSW 6.4 mph /  10.3 km/h 17.7 mph /  28.5 km/h 75 % 0.0 in /  0 mm
14:52 20.2 °F /  -6.6 °C 15.8 °F /  -9 °C 1015.5 in /  34384.8 hPa WSW 4.8 mph /  7.7 km/h 17.7 mph /  28.5 km/h 76 % 0.0 in /  0 mm
15:02 20.2 °F /  -6.6 °C 16.0 °F /  -8.9 °C 1015.1 in /  34371.3 hPa WNW 8.0 mph /  12.9 km/h 12.9 mph /  20.8 km/h 77 % 0.0 in /  0 mm
15:07 20.3 °F /  -6.5 °C 16.3 °F /  -8.7 °C 1015.1 in /  34371.3 hPa Calm   11.3 mph /  18.2 km/h 78 % 0.0 in /  0 mm
15:12 20.5 °F /  -6.4 °C 16.3 °F /  -8.7 °C 1015.1 in /  34371.3 hPa WSW 3.2 mph /  5.1 km/h 11.3 mph /  18.2 km/h 77 % 0.0 in /  0 mm
15:17 20.6 °F /  -6.3 °C 16.6 °F /  -8.6 °C 1015.1 in /  34371.3 hPa WNW 4.8 mph /  7.7 km/h 11.3 mph /  18.2 km/h 78 % 0.0 in /  0 mm
15:22 20.7 °F /  -6.3 °C 16.5 °F /  -8.6 °C 1015.1 in /  34371.3 hPa WNW 3.2 mph /  5.1 km/h 6.4 mph /  10.3 km/h 77 % 0.0 in /  0 mm
15:32 20.8 °F /  -6.2 °C 16.2 °F /  -8.8 °C 1015.1 in /  34371.3 hPa West 6.4 mph /  10.3 km/h 6.4 mph /  10.3 km/h 75 % 0.0 in /  0 mm
15:37 20.7 °F /  -6.3 °C 16.3 °F /  -8.7 °C 1015.1 in /  34371.3 hPa WNW 4.8 mph /  7.7 km/h 11.3 mph /  18.2 km/h 76 % 0.0 in /  0 mm
15:42 20.7 °F /  -6.3 °C 16.5 °F /  -8.6 °C 1015.1 in /  34371.3 hPa WNW 8.0 mph /  12.9 km/h 11.3 mph /  18.2 km/h 77 % 0.0 in /  0 mm
15:47 20.6 °F /  -6.3 °C 16.6 °F /  -8.6 °C 1015.1 in /  34371.3 hPa WNW 8.0 mph /  12.9 km/h 11.3 mph /  18.2 km/h 78 % 0.0 in /  0 mm
15:52 20.4 °F /  -6.4 °C 16.6 °F /  -8.6 °C 1015.1 in /  34371.3 hPa WNW 14.5 mph /  23.3 km/h 14.5 mph /  23.3 km/h 79 % 0.0 in /  0 mm
15:57 20.3 °F /  -6.5 °C 16.5 °F /  -8.6 °C 1015.1 in /  34371.3 hPa West 3.2 mph /  5.1 km/h 16.1 mph /  25.9 km/h 79 % 0.0 in /  0 mm
16:02 20.3 °F /  -6.5 °C 16.5 °F /  -8.6 °C 1015.1 in /  34371.3 hPa West 1.6 mph /  2.6 km/h 16.1 mph /  25.9 km/h 79 % 0.0 in /  0 mm
16:07 20.3 °F /  -6.5 °C 16.5 °F /  -8.6 °C 1015.1 in /  34371.3 hPa WNW 9.7 mph /  15.6 km/h 16.1 mph /  25.9 km/h 79 % 0.0 in /  0 mm
16:12 20.2 °F /  -6.6 °C 16.2 °F /  -8.8 °C 1015.1 in /  34371.3 hPa NW 6.4 mph /  10.3 km/h 11.3 mph /  18.2 km/h 78 % 0.0 in /  0 mm
16:17 20.1 °F /  -6.6 °C 16.1 °F /  -8.8 °C 1015.1 in /  34371.3 hPa WNW 4.8 mph /  7.7 km/h 11.3 mph /  18.2 km/h 78 % 0.0 in /  0 mm
16:22 19.9 °F /  -6.7 °C 16.3 °F /  -8.7 °C 1015.1 in /  34371.3 hPa WNW 3.2 mph /  5.1 km/h 17.7 mph /  28.5 km/h 80 % 0.0 in /  0 mm
16:27 19.7 °F /  -6.8 °C 16.2 °F /  -8.8 °C 1015.1 in /  34371.3 hPa West 8.0 mph /  12.9 km/h 17.7 mph /  28.5 km/h 80 % 0.0 in /  0 mm
16:32 19.5 °F /  -6.9 °C 16.0 °F /  -8.9 °C 1015.1 in /  34371.3 hPa NNW 4.8 mph /  7.7 km/h 17.7 mph /  28.5 km/h 80 % 0.0 in /  0 mm
16:37 19.3 °F /  -7.1 °C 15.8 °F /  -9 °C 1015.1 in /  34371.3 hPa West 8.0 mph /  12.9 km/h 16.1 mph /  25.9 km/h 80 % 0.0 in /  0 mm
16:47 19.0 °F /  -7.2 °C 16.0 °F /  -8.9 °C 1015.1 in /  34371.3 hPa WNW 8.0 mph /  12.9 km/h 16.1 mph /  25.9 km/h 83 % 0.0 in /  0 mm
16:52 18.8 °F /  -7.3 °C 16.0 °F /  -8.9 °C 1015.1 in /  34371.3 hPa WNW 8.0 mph /  12.9 km/h 14.5 mph /  23.3 km/h 84 % 0.3 in /  7.62 mm
16:57 18.6 °F /  -7.4 °C 16.2 °F /  -8.8 °C 1015.1 in /  34371.3 hPa WNW 3.2 mph /  5.1 km/h 14.5 mph /  23.3 km/h 86 % 0.5 in /  12.7 mm
17:02 18.4 °F /  -7.6 °C 16.2 °F /  -8.8 °C 1015.1 in /  34371.3 hPa WNW 9.7 mph /  15.6 km/h 14.5 mph /  23.3 km/h 87 % 0.5 in /  12.7 mm
17:07 18.3 °F /  -7.6 °C 16.1 °F /  -8.8 °C 1015.1 in /  34371.3 hPa West 6.4 mph /  10.3 km/h 12.9 mph /  20.8 km/h 87 % 0.5 in /  12.7 mm
17:12 18.2 °F /  -7.7 °C 16.2 °F /  -8.8 °C 1015.1 in /  34371.3 hPa West 3.2 mph /  5.1 km/h 12.9 mph /  20.8 km/h 88 % 0.5 in /  12.7 mm
17:17 18.1 °F /  -7.7 °C 16.1 °F /  -8.8 °C 1015.1 in /  34371.3 hPa WSW 11.3 mph /  18.2 km/h 16.1 mph /  25.9 km/h 88 % 0.5 in /  12.7 mm
17:22 18.1 °F /  -7.7 °C 16.3 °F /  -8.7 °C 1015.1 in /  34371.3 hPa NW 6.4 mph /  10.3 km/h 16.1 mph /  25.9 km/h 89 % 0.5 in /  12.7 mm
17:27 18.1 °F /  -7.7 °C 16.3 °F /  -8.7 °C 1015.1 in /  34371.3 hPa NW 6.4 mph /  10.3 km/h 16.1 mph /  25.9 km/h 89 % 0.5 in /  12.7 mm
17:37 17.8 °F /  -7.9 °C 16.1 °F /  -8.8 °C 1015.1 in /  34371.3 hPa NW 9.7 mph /  15.6 km/h 14.5 mph /  23.3 km/h 90 % 1.3 in /  33.02 mm
17:42 17.7 °F /  -7.9 °C 16.0 °F /  -8.9 °C 1015.1 in /  34371.3 hPa NNE 8.0 mph /  12.9 km/h 16.1 mph /  25.9 km/h 90 % 1.3 in /  33.02 mm
17:52 17.4 °F /  -8.1 °C 15.9 °F /  -8.9 °C 1015.5 in /  34384.8 hPa NW 4.8 mph /  7.7 km/h 16.1 mph /  25.9 km/h 91 % 1.0 in /  25.4 mm
17:57 17.3 °F /  -8.2 °C 15.8 °F /  -9 °C 1015.5 in /  34384.8 hPa NW 9.7 mph /  15.6 km/h 16.1 mph /  25.9 km/h 91 % 1.0 in /  25.4 mm
18:02 17.0 °F /  -8.3 °C 15.3 °F /  -9.3 °C 1015.5 in /  34384.8 hPa NW 11.3 mph /  18.2 km/h 17.7 mph /  28.5 km/h 90 % 1.0 in /  25.4 mm
18:12 16.6 °F /  -8.6 °C 15.0 °F /  -9.4 °C 1015.5 in /  34384.8 hPa NNW 9.7 mph /  15.6 km/h 24.1 mph /  38.8 km/h 90 % 1.3 in /  33.02 mm
18:17 16.3 °F /  -8.7 °C 14.7 °F /  -9.6 °C 1015.5 in /  34384.8 hPa WNW 11.3 mph /  18.2 km/h 24.1 mph /  38.8 km/h 90 % 1.3 in /  33.02 mm
18:22 16.1 °F /  -8.8 °C 14.5 °F /  -9.7 °C 1015.5 in /  34384.8 hPa NW 4.8 mph /  7.7 km/h 20.9 mph /  33.6 km/h 90 % 1.5 in /  38.1 mm
18:32 15.9 °F /  -8.9 °C 14.4 °F /  -9.8 °C 1015.5 in /  34384.8 hPa NW 8.0 mph /  12.9 km/h 17.7 mph /  28.5 km/h 91 % 1.3 in /  33.02 mm
18:42 15.9 °F /  -8.9 °C 14.4 °F /  -9.8 °C 1015.8 in /  34395 hPa WNW 6.4 mph /  10.3 km/h 17.7 mph /  28.5 km/h 91 % 1.3 in /  33.02 mm
18:47 15.9 °F /  -8.9 °C 14.4 °F /  -9.8 °C 1015.5 in /  34384.8 hPa NW 4.8 mph /  7.7 km/h 16.1 mph /  25.9 km/h 91 % 1.0 in /  25.4 mm
18:52 15.9 °F /  -8.9 °C 14.4 °F /  -9.8 °C 1015.5 in /  34384.8 hPa Calm   16.1 mph /  25.9 km/h 91 % 1.0 in /  25.4 mm
18:57 15.9 °F /  -8.9 °C 14.4 °F /  -9.8 °C 1015.5 in /  34384.8 hPa WNW 3.2 mph /  5.1 km/h 12.9 mph /  20.8 km/h 91 % 1.0 in /  25.4 mm
19:02 15.9 °F /  -8.9 °C 14.4 °F /  -9.8 °C 1015.5 in /  34384.8 hPa Calm   12.9 mph /  20.8 km/h 91 % 0.8 in /  20.32 mm
19:07 15.9 °F /  -8.9 °C 14.6 °F /  -9.7 °C 1015.5 in /  34384.8 hPa NW 3.2 mph /  5.1 km/h 12.9 mph /  20.8 km/h 92 % 0.8 in /  20.32 mm
19:12 15.9 °F /  -8.9 °C 14.6 °F /  -9.7 °C 1015.8 in /  34395 hPa Calm   8.0 mph /  12.9 km/h 92 % 0.8 in /  20.32 mm
19:17 15.9 °F /  -8.9 °C 14.4 °F /  -9.8 °C 1015.8 in /  34395 hPa Calm   6.4 mph /  10.3 km/h 91 % 0.5 in /  12.7 mm
19:27 15.9 °F /  -8.9 °C 14.4 °F /  -9.8 °C 1015.8 in /  34395 hPa Calm   3.2 mph /  5.1 km/h 91 % 0.5 in /  12.7 mm
19:32 15.9 °F /  -8.9 °C 14.6 °F /  -9.7 °C 1015.8 in /  34395 hPa Calm   3.2 mph /  5.1 km/h 92 % 0.5 in /  12.7 mm
19:42 15.9 °F /  -8.9 °C 14.6 °F /  -9.7 °C 1015.8 in /  34395 hPa Calm   3.2 mph /  5.1 km/h 92 % 0.5 in /  12.7 mm
19:47 15.9 °F /  -8.9 °C 14.6 °F /  -9.7 °C 1015.8 in /  34395 hPa Calm   3.2 mph /  5.1 km/h 92 % 0.5 in /  12.7 mm
19:52 15.8 °F /  -9 °C 14.5 °F /  -9.7 °C 1015.8 in /  34395 hPa Calm   3.2 mph /  5.1 km/h 92 % 0.5 in /  12.7 mm
19:57 15.8 °F /  -9 °C 14.5 °F /  -9.7 °C 1015.8 in /  34395 hPa Calm   1.6 mph /  2.6 km/h 92 % 0.5 in /  12.7 mm
20:02 15.8 °F /  -9 °C 14.5 °F /  -9.7 °C 1015.8 in /  34395 hPa Calm   1.6 mph /  2.6 km/h 92 % 0.5 in /  12.7 mm
20:12 15.8 °F /  -9 °C 14.7 °F /  -9.6 °C 1015.8 in /  34395 hPa Calm     93 % 0.5 in /  12.7 mm
20:17 15.8 °F /  -9 °C 14.7 °F /  -9.6 °C 1015.8 in /  34395 hPa Calm     93 % 0.5 in /  12.7 mm
20:22 15.8 °F /  -9 °C 14.7 °F /  -9.6 °C 1015.8 in /  34395 hPa Calm     93 % 0.5 in /  12.7 mm
20:27 15.8 °F /  -9 °C 14.8 °F /  -9.6 °C 1015.8 in /  34395 hPa Calm     94 % 0.5 in /  12.7 mm
20:32 15.9 °F /  -8.9 °C 14.9 °F /  -9.5 °C 1016.1 in /  34405.1 hPa Calm     94 % 0.5 in /  12.7 mm
20:37 15.9 °F /  -8.9 °C 14.9 °F /  -9.5 °C 1016.1 in /  34405.1 hPa Calm     94 % 0.5 in /  12.7 mm
20:42 16.0 °F /  -8.9 °C 15.2 °F /  -9.3 °C 1016.1 in /  34405.1 hPa WNW 4.8 mph /  7.7 km/h 4.8 mph /  7.7 km/h 95 % 1.0 in /  25.4 mm
20:47 16.1 °F /  -8.8 °C 15.1 °F /  -9.4 °C 1016.1 in /  34405.1 hPa NNE 6.4 mph /  10.3 km/h 14.5 mph /  23.3 km/h 94 % 2.5 in /  63.5 mm
20:57 15.9 °F /  -8.9 °C 14.9 °F /  -9.5 °C 1016.1 in /  34405.1 hPa NW 1.6 mph /  2.6 km/h 11.3 mph /  18.2 km/h 94 % 4.1 in /  104.14 mm
21:02 15.9 °F /  -8.9 °C 14.9 °F /  -9.5 °C 1016.1 in /  34405.1 hPa NW 3.2 mph /  5.1 km/h 6.4 mph /  10.3 km/h 94 % 4.3 in /  109.22 mm
21:12 15.8 °F /  -9 °C 15.0 °F /  -9.4 °C 1016.1 in /  34405.1 hPa Calm   4.8 mph /  7.7 km/h 95 % 4.3 in /  109.22 mm
21:17 15.8 °F /  -9 °C 15.0 °F /  -9.4 °C 1016.1 in /  34405.1 hPa Calm   4.8 mph /  7.7 km/h 95 % 4.6 in /  116.84 mm
21:22 15.7 °F /  -9.1 °C 14.9 °F /  -9.5 °C 1016.1 in /  34405.1 hPa Calm   4.8 mph /  7.7 km/h 95 % 4.8 in /  121.92 mm
21:27 15.7 °F /  -9.1 °C 14.9 °F /  -9.5 °C 1016.1 in /  34405.1 hPa Calm   1.6 mph /  2.6 km/h 95 % 4.8 in /  121.92 mm
21:32 15.7 °F /  -9.1 °C 14.9 °F /  -9.5 °C 1016.1 in /  34405.1 hPa Calm   1.6 mph /  2.6 km/h 95 % 4.6 in /  116.84 mm
21:37 15.7 °F /  -9.1 °C 14.9 °F /  -9.5 °C 1016.5 in /  34418.7 hPa Calm   1.6 mph /  2.6 km/h 95 % 4.8 in /  121.92 mm
21:42 15.7 °F /  -9.1 °C 14.9 °F /  -9.5 °C 1016.1 in /  34405.1 hPa Calm     95 % 4.1 in /  104.14 mm
21:47 15.7 °F /  -9.1 °C 14.9 °F /  -9.5 °C 1016.1 in /  34405.1 hPa Calm     95 % 2.5 in /  63.5 mm
21:52 15.7 °F /  -9.1 °C 14.9 °F /  -9.5 °C 1016.5 in /  34418.7 hPa Calm     95 % 1.5 in /  38.1 mm
21:57 15.8 °F /  -9 °C 15.0 °F /  -9.4 °C 1016.5 in /  34418.7 hPa Calm     95 % 1.3 in /  33.02 mm
22:02 15.7 °F /  -9.1 °C 14.9 °F /  -9.5 °C 1016.5 in /  34418.7 hPa Calm     95 % 1.0 in /  25.4 mm
22:07 15.8 °F /  -9 °C 15.2 °F /  -9.3 °C 1016.8 in /  34428.8 hPa Calm     96 % 1.0 in /  25.4 mm
22:12 15.8 °F /  -9 °C 15.2 °F /  -9.3 °C 1016.8 in /  34428.8 hPa Calm     96 % 1.0 in /  25.4 mm
22:17 15.8 °F /  -9 °C 15.2 °F /  -9.3 °C 1016.8 in /  34428.8 hPa WNW 3.2 mph /  5.1 km/h 4.8 mph /  7.7 km/h 96 % 0.8 in /  20.32 mm
22:22 15.8 °F /  -9 °C 15.0 °F /  -9.4 °C 1017.2 in /  34442.4 hPa WNW 6.4 mph /  10.3 km/h 8.0 mph /  12.9 km/h 95 % 0.5 in /  12.7 mm
22:27 15.7 °F /  -9.1 °C 14.9 °F /  -9.5 °C 1017.2 in /  34442.4 hPa NNW 3.2 mph /  5.1 km/h 8.0 mph /  12.9 km/h 95 % 0.5 in /  12.7 mm
22:37 15.6 °F /  -9.1 °C 14.8 °F /  -9.6 °C 1017.2 in /  34442.4 hPa WNW 8.0 mph /  12.9 km/h 8.0 mph /  12.9 km/h 95 % 0.5 in /  12.7 mm
22:42 15.6 °F /  -9.1 °C 14.8 °F /  -9.6 °C 1017.2 in /  34442.4 hPa WNW 4.8 mph /  7.7 km/h 8.0 mph /  12.9 km/h 95 % 0.5 in /  12.7 mm
22:47 15.5 °F /  -9.2 °C 14.7 °F /  -9.6 °C 1017.5 in /  34452.6 hPa WNW 9.7 mph /  15.6 km/h 9.7 mph /  15.6 km/h 95 % 0.5 in /  12.7 mm
22:52 15.4 °F /  -9.2 °C 14.6 °F /  -9.7 °C 1017.5 in /  34452.6 hPa NW 1.6 mph /  2.6 km/h 11.3 mph /  18.2 km/h 95 % 0.5 in /  12.7 mm
22:57 15.4 °F /  -9.2 °C 14.6 °F /  -9.7 °C 1017.5 in /  34452.6 hPa NW 4.8 mph /  7.7 km/h 11.3 mph /  18.2 km/h 95 % 0.3 in /  7.62 mm
23:02 15.3 °F /  -9.3 °C 14.5 °F /  -9.7 °C 1017.5 in /  34452.6 hPa WNW 8.0 mph /  12.9 km/h 11.3 mph /  18.2 km/h 95 % 0.3 in /  7.62 mm
23:12 15.2 °F /  -9.3 °C 14.4 °F /  -9.8 °C 1017.5 in /  34452.6 hPa NNW 3.2 mph /  5.1 km/h 11.3 mph /  18.2 km/h 95 % 0.0 in /  0 mm
23:17 15.2 °F /  -9.3 °C 14.4 °F /  -9.8 °C 1017.8 in /  34462.7 hPa WNW 1.6 mph /  2.6 km/h 12.9 mph /  20.8 km/h 95 % 0.0 in /  0 mm
23:22 15.1 °F /  -9.4 °C 14.3 °F /  -9.8 °C 1017.8 in /  34462.7 hPa WNW 6.4 mph /  10.3 km/h 12.9 mph /  20.8 km/h 95 % 0.0 in /  0 mm
23:27 15.0 °F /  -9.4 °C 14.2 °F /  -9.9 °C 1017.8 in /  34462.7 hPa NW 9.7 mph /  15.6 km/h 12.9 mph /  20.8 km/h 95 % 0.0 in /  0 mm
23:37 14.8 °F /  -9.6 °C 14.0 °F /  -10 °C 1017.8 in /  34462.7 hPa WNW 6.4 mph /  10.3 km/h 14.5 mph /  23.3 km/h 95 % 0.3 in /  7.62 mm
23:47 14.6 °F /  -9.7 °C 13.6 °F /  -10.2 °C 1017.8 in /  34462.7 hPa NW 3.2 mph /  5.1 km/h 14.5 mph /  23.3 km/h 94 % 0.3 in /  7.62 mm
23:52 14.4 °F /  -9.8 °C 13.4 °F /  -10.3 °C 1017.8 in /  34462.7 hPa North 6.4 mph /  10.3 km/h 14.5 mph /  23.3 km/h 94 % 0.5 in /  12.7 mm
23:57 14.3 °F /  -9.8 °C 13.3 °F /  -10.4 °C 1018.2 in /  34476.3 hPa North 4.8 mph /  7.7 km/h 14.5 mph /  23.3 km/h 94 % 0.5 in /  12.7 mm
Meteo18
Compliments of Weather Underground - 4 mb

Script developed by  Jim McMurry - jmcmurry@mwt.net Adapted for the template by  Wim van der Kuil - Leuven-Template.eu

You find our weather info also at:

European Weather Network

Weather Underground

Equipment we use:

Weather-station
Davis Vue

Weather-program
Meteobridge

Weather-server
Raspberry PI 2 B+

Provider
1 and 1

Davis Vue

Meteobridge

Raspberry PI 2 B+

1 and 1